Time;durP1;ratioP1;P1;durP2;ratioP2;P2;SDS_P1;SDS_P2;PMS_P1;PMS_P2;Temp;Humidity;BMP_temperature;BMP_pressure;BME280_temperature;BME280_humidity;BME280_pressure;Samples;Min_cycle;Max_cycle;Signal;HPM_P1;HPM_P2
2022/03/19 00:01:40;;;;;;;;;;;;;;;24.08;37.25;95586.34;4970526;28;8455;-63
2022/03/19 00:04:06;;;;;;;;;;;;;;;24.08;37.21;95592.59;4981072;28;9109;-63
2022/03/19 00:06:39;;;;;;;;;;;;;;;24.04;37.15;95580.25;4972464;28;9101;-63
2022/03/19 00:09:09;;;;;;;;;;;;;;;24.07;37.47;95590.34;4989331;28;6933;-63
2022/03/19 00:11:42;;;;;;;;;;;;;;;24.02;36.92;95577.97;4957933;28;7029;-63
2022/03/19 00:14:12;;;;;;;;;;;;;;;24.08;37.06;95583.59;4989603;28;7293;-63
2022/03/19 00:16:39;;;;;;;;;;;;;;;24.07;36.79;95580.13;4989319;28;9137;-63
2022/03/19 00:19:08;;;;;;;;;;;;;;;24.04;37.20;95581.00;4968781;28;8769;-63
2022/03/19 00:21:43;;;;;;;;;;;;;;;24.06;36.89;95584.09;4973431;28;9198;-63
2022/03/19 00:24:12;;;;;;;;;;;;;;;24.06;36.86;95589.56;4973644;28;7068;-63
2022/03/19 00:26:41;;;;;;;;;;;;;;;24.06;36.89;95583.31;4974302;28;7418;-63
2022/03/19 00:29:11;;;;;;;;;;;;;;;24.06;36.86;95586.06;4980257;28;7166;-63
2022/03/19 00:31:37;;;;;;;;;;;;;;;24.06;36.57;95580.56;4980092;28;9166;-63
2022/03/19 00:34:03;;;;;;;;;;;;;;;24.06;36.37;95583.31;4971801;28;9646;-63
2022/03/19 00:36:31;;;;;;;;;;;;;;;24.05;36.88;95590.06;4988942;28;8744;-63
2022/03/19 00:38:58;;;;;;;;;;;;;;;24.05;36.97;95581.81;4984294;28;9081;-63
2022/03/19 00:41:31;;;;;;;;;;;;;;;24.05;36.85;95579.84;4985555;28;9161;-63
2022/03/19 00:44:06;;;;;;;;;;;;;;;24.04;36.80;95586.50;4972344;28;9117;-63
2022/03/19 00:46:37;;;;;;;;;;;;;;;24.06;37.38;95577.81;4973374;28;9152;-63
2022/03/19 00:49:03;;;;;;;;;;;;;;;24.05;36.74;95582.56;4977665;28;7882;-63
2022/03/19 00:51:32;;;;;;;;;;;;;;;24.05;36.57;95570.81;4973211;28;7060;-63
2022/03/19 00:53:58;;;;;;;;;;;;;;;24.04;36.54;95581.00;4973924;28;8997;-63
2022/03/19 00:56:24;;;;;;;;;;;;;;;24.04;36.17;95578.28;4973278;28;8334;-63
2022/03/19 00:58:50;;;;;;;;;;;;;;;24.06;36.30;95583.31;4987731;28;7209;-63
2022/03/19 01:01:16;;;;;;;;;;;;;;;24.05;36.62;95584.56;4969782;28;7469;-64
2022/03/19 01:03:43;;;;;;;;;;;;;;;24.05;36.20;95587.31;4986280;28;9050;-63
2022/03/19 01:06:09;;;;;;;;;;;;;;;24.04;35.96;95586.50;4982391;28;7271;-63
2022/03/19 01:08:35;;;;;;;;;;;;;;;24.02;36.42;95588.97;4984220;28;7444;-63
2022/03/19 01:11:02;;;;;;;;;;;;;;;24.05;36.36;95588.06;4972230;28;9063;-63
2022/03/19 01:13:28;;;;;;;;;;;;;;;24.06;36.00;95589.56;4962125;28;7299;-65
2022/03/19 01:15:57;;;;;;;;;;;;;;;24.06;35.82;95583.31;4968783;28;7268;-63
2022/03/19 01:18:31;;;;;;;;;;;;;;;24.05;36.17;95588.06;4969057;28;9389;-64
2022/03/19 01:20:57;;;;;;;;;;;;;;;24.03;35.71;95585.00;4985020;28;7062;-64
2022/03/19 01:23:50;;;;;;;;;;;;;;;24.03;35.99;95595.25;4971433;28;7569;-63
2022/03/19 01:26:17;;;;;;;;;;;;;;;24.04;35.85;95586.50;4966765;28;7199;-64
2022/03/19 01:28:44;;;;;;;;;;;;;;;24.05;35.92;95584.56;4957547;28;7258;-63
2022/03/19 01:31:12;;;;;;;;;;;;;;;24.05;35.96;95585.31;4964749;28;9124;-63
2022/03/19 01:33:38;;;;;;;;;;;;;;;24.06;36.03;95592.31;4950477;28;8574;-63
2022/03/19 01:36:04;;;;;;;;;;;;;;;24.02;35.76;95582.72;4966086;28;7378;-63
2022/03/19 01:38:30;;;;;;;;;;;;;;;24.04;35.90;95583.75;4950135;28;8644;-63
2022/03/19 01:40:59;;;;;;;;;;;;;;;24.03;35.68;95584.25;4965680;28;7079;-63
2022/03/19 01:43:25;;;;;;;;;;;;;;;24.03;35.52;95578.75;4950309;28;9615;-63
2022/03/19 01:45:53;;;;;;;;;;;;;;;24.02;35.51;95580.72;4966197;28;7479;-63
2022/03/19 01:48:19;;;;;;;;;;;;;;;24.02;35.85;95577.97;4966121;28;9221;-63
2022/03/19 01:50:45;;;;;;;;;;;;;;;24.01;35.94;95587.47;4946596;28;8704;-63
2022/03/19 01:53:11;;;;;;;;;;;;;;;24.01;35.86;95576.47;4949594;28;8732;-63
2022/03/19 01:55:38;;;;;;;;;;;;;;;23.99;35.77;95576.94;4965642;28;7270;-63
2022/03/19 01:58:04;;;;;;;;;;;;;;;24.02;35.37;95580.72;4949392;28;8789;-63
2022/03/19 02:00:31;;;;;;;;;;;;;;;24.03;35.47;95568.53;4965589;28;9011;-63
2022/03/19 02:03:00;;;;;;;;;;;;;;;24.06;35.28;95581.34;4956119;28;7249;-63
2022/03/19 02:05:26;;;;;;;;;;;;;;;24.03;35.67;95568.53;4970859;28;9365;-63
2022/03/19 02:07:53;;;;;;;;;;;;;;;24.03;35.28;95568.53;4970570;28;7560;-63
2022/03/19 02:10:22;;;;;;;;;;;;;;;24.04;35.26;95578.28;4985291;28;7042;-63
2022/03/19 02:12:50;;;;;;;;;;;;;;;24.06;35.07;95578.59;4985348;28;9042;-63
2022/03/19 02:15:19;;;;;;;;;;;;;;;24.05;35.17;95582.56;4988692;28;10012;-63
2022/03/19 02:17:45;;;;;;;;;;;;;;;24.05;35.35;95568.84;4988977;28;7876;-63
2022/03/19 02:20:12;;;;;;;;;;;;;;;24.04;35.57;95580.25;4975166;28;9500;-63
2022/03/19 02:26:07;;;;;;;;;;;;;;;24.01;35.20;95578.47;4954244;28;8923;-63
2022/03/19 02:28:35;;;;;;;;;;;;;;;24.01;34.86;95579.22;4942823;28;9072;-63
2022/03/19 02:31:04;;;;;;;;;;;;;;;23.99;35.03;95576.16;4962912;28;9467;-63
2022/03/19 02:34:09;;;;;;;;;;;;;;;24.01;34.89;95575.72;4947340;28;7065;-63
2022/03/19 02:36:45;;;;;;;;;;;;;;;24.01;35.27;95570.22;4916874;29;9325;-63
2022/03/19 02:39:21;;;;;;;;;;;;;;;23.96;35.05;95564.16;4900873;29;9504;-63
2022/03/19 02:41:52;;;;;;;;;;;;;;;23.97;35.80;95567.63;4900631;29;9326;-63
2022/03/19 02:44:54;;;;;;;;;;;;;;;23.99;35.34;95568.69;4916147;29;7505;-63
2022/03/19 02:47:56;;;;;;;;;;;;;;;23.97;35.15;95559.41;4888086;29;6856;-63
2022/03/19 02:50:37;;;;;;;;;;;;;;;23.96;34.81;95563.38;4887295;29;9287;-63
2022/03/19 02:53:12;;;;;;;;;;;;;;;23.97;34.99;95568.41;4879647;29;8922;-63
2022/03/19 02:55:41;;;;;;;;;;;;;;;23.98;34.76;95563.66;4873401;29;10144;-63
2022/03/19 02:58:12;;;;;;;;;;;;;;;23.97;34.87;95554.66;4878386;29;7526;-63
2022/03/19 03:00:40;;;;;;;;;;;;;;;23.99;34.94;95556.94;4887366;29;7535;-63
2022/03/19 03:03:37;;;;;;;;;;;;;;;23.97;34.89;95559.41;4858534;29;9078;-63
2022/03/19 03:06:20;;;;;;;;;;;;;;;23.97;34.78;95562.91;4860873;29;8411;-63
2022/03/19 03:08:47;;;;;;;;;;;;;;;23.97;34.42;95560.16;4863311;29;7343;-63
2022/03/19 03:11:46;;;;;;;;;;;;;;;23.97;35.32;95565.66;4860093;29;9335;-63
2022/03/19 03:14:50;;;;;;;;;;;;;;;23.94;34.70;95554.84;4878709;29;7734;-63
2022/03/19 03:17:18;;;;;;;;;;;;;;;23.93;35.09;95561.56;4894720;29;9173;-63
2022/03/19 03:19:46;;;;;;;;;;;;;;;23.93;35.03;95556.06;4897152;29;9122;-63
2022/03/19 03:22:27;;;;;;;;;;;;;;;23.94;35.31;95560.34;4881053;29;9090;-63
2022/03/19 03:24:55;;;;;;;;;;;;;;;23.94;35.02;95560.34;4901791;29;7512;-63
2022/03/19 03:27:24;;;;;;;;;;;;;;;23.95;34.42;95561.84;4893003;29;8772;-63
2022/03/19 03:29:53;;;;;;;;;;;;;;;23.96;35.01;95560.63;4911498;29;7337;-63
2022/03/19 03:32:30;;;;;;;;;;;;;;;23.96;34.58;95555.91;4896464;29;7677;-63
2022/03/19 03:35:00;;;;;;;;;;;;;;;23.98;34.62;95560.94;4905696;29;7066;-63
2022/03/19 03:37:28;;;;;;;;;;;;;;;23.98;34.31;95566.41;4896913;29;6985;-63
2022/03/19 03:39:54;;;;;;;;;;;;;;;23.97;34.02;95562.91;4895670;29;9086;-63
2022/03/19 03:42:22;;;;;;;;;;;;;;;23.99;34.45;95565.94;4913869;28;8755;-63
2022/03/19 03:45:17;;;;;;;;;;;;;;;23.98;34.52;95561.69;4933997;28;7148;-63
2022/03/19 03:47:53;;;;;;;;;;;;;;;23.97;34.00;95557.41;4924126;28;9343;-63
2022/03/19 03:50:22;;;;;;;;;;;;;;;23.96;34.20;95561.41;4953523;28;7237;-63
2022/03/19 03:52:49;;;;;;;;;;;;;;;23.97;34.27;95559.41;4933388;28;9136;-63
2022/03/19 03:55:15;;;;;;;;;;;;;;;23.96;34.79;95555.16;4936689;28;7320;-63
2022/03/19 03:57:42;;;;;;;;;;;;;;;23.96;34.31;95564.16;4921440;28;9099;-63
2022/03/19 04:00:09;;;;;;;;;;;;;;;23.97;34.66;95553.91;4937478;28;8803;-63
2022/03/19 04:02:50;;;;;;;;;;;;;;;23.99;34.38;95562.44;4937068;28;7001;-63
2022/03/19 04:05:20;;;;;;;;;;;;;;;24.00;34.63;95572.19;4940141;28;9471;-63
2022/03/19 04:07:48;;;;;;;;;;;;;;;23.98;34.29;95569.16;4931483;28;7322;-63
2022/03/19 04:10:25;;;;;;;;;;;;;;;23.97;34.10;95562.16;4928494;29;7498;-63
2022/03/19 04:12:53;;;;;;;;;;;;;;;23.97;34.63;95553.91;4935644;28;7046;-63
2022/03/19 04:15:22;;;;;;;;;;;;;;;23.97;34.22;95556.66;4941520;28;8694;-63
2022/03/19 04:17:49;;;;;;;;;;;;;;;23.99;34.31;95551.44;4952646;28;7942;-63
2022/03/19 04:20:16;;;;;;;;;;;;;;;23.98;34.24;95558.19;4936819;28;7495;-63
2022/03/19 04:22:45;;;;;;;;;;;;;;;23.96;34.53;95555.16;4937118;28;9223;-63
2022/03/19 04:25:23;;;;;;;;;;;;;;;23.96;34.19;95557.91;4986869;28;9121;-63
2022/03/19 04:27:55;;;;;;;;;;;;;;;23.97;34.18;95562.16;4995507;28;6873;-63
2022/03/19 04:30:24;;;;;;;;;;;;;;;23.98;34.59;95558.19;4974454;28;7175;-63
2022/03/19 04:33:00;;;;;;;;;;;;;;;23.98;34.50;95560.94;4972302;28;9762;-63
2022/03/19 04:38:21;;;;;;;;;;;;;;;23.96;34.09;95560.63;4967101;28;9197;-63
2022/03/19 04:40:52;;;;;;;;;;;;;;;23.95;34.07;95568.13;4968018;28;7652;-63
2022/03/19 04:43:21;;;;;;;;;;;;;;;23.97;33.61;95570.38;4983962;28;7891;-63
2022/03/19 04:45:48;;;;;;;;;;;;;;;23.97;33.63;95573.91;4960817;28;9177;-63
2022/03/19 04:48:16;;;;;;;;;;;;;;;23.95;33.54;95565.38;4980860;28;7058;-63
2022/03/19 04:50:44;;;;;;;;;;;;;;;23.96;33.93;95569.66;4966197;28;7064;-63
2022/03/19 04:53:13;;;;;;;;;;;;;;;23.94;33.56;95565.84;4964980;28;7013;-63
2022/03/19 04:55:40;;;;;;;;;;;;;;;23.90;33.62;95559.78;4976959;28;7147;-63
2022/03/19 04:58:07;;;;;;;;;;;;;;;23.93;33.36;95572.56;4962424;28;9847;-63
2022/03/19 05:00:34;;;;;;;;;;;;;;;23.96;33.45;95574.38;4964530;28;7233;-63
2022/03/19 05:03:01;;;;;;;;;;;;;;;23.94;33.48;95574.84;4983445;28;7458;-63
2022/03/19 05:05:27;;;;;;;;;;;;;;;23.92;33.05;95573.81;4963007;28;9426;-63
2022/03/19 05:07:54;;;;;;;;;;;;;;;23.93;33.07;95572.56;4983548;28;9388;-64
2022/03/19 05:13:09;;;;;;;;;;;;;;;23.95;32.75;95575.59;4963970;28;7014;-63
2022/03/19 05:15:35;;;;;;;;;;;;;;;23.93;33.07;95569.81;4971555;28;7285;-64
2022/03/19 05:18:02;;;;;;;;;;;;;;;23.90;32.58;95570.78;4966680;28;8220;-63
2022/03/19 05:20:31;;;;;;;;;;;;;;;23.87;33.15;95577.97;4962501;28;7500;-63
2022/03/19 05:22:58;;;;;;;;;;;;;;;23.86;33.40;95570.19;4965014;28;7165;-63
2022/03/19 05:25:24;;;;;;;;;;;;;;;23.88;32.90;95575.97;4968484;28;7456;-63
2022/03/19 05:27:51;;;;;;;;;;;;;;;23.85;33.23;95577.69;4966921;28;7233;-63
2022/03/19 05:30:17;;;;;;;;;;;;;;;23.83;32.85;95579.38;4969643;28;9067;-63
2022/03/19 05:32:44;;;;;;;;;;;;;;;23.86;33.19;95581.16;4980860;28;9161;-63
2022/03/19 05:35:11;;;;;;;;;;;;;;;23.88;33.70;95578.72;4979686;28;6865;-63
2022/03/19 05:37:41;;;;;;;;;;;;;;;23.88;33.64;95579.47;4982508;28;9098;-62
2022/03/19 05:40:08;;;;;;;;;;;;;;;23.88;32.88;95581.47;4967792;28;7257;-63
2022/03/19 05:42:37;;;;;;;;;;;;;;;23.91;33.58;95577.78;4964523;28;9804;-63
2022/03/19 05:45:03;;;;;;;;;;;;;;;23.92;33.16;95579.31;4979513;28;9244;-63
2022/03/19 05:47:29;;;;;;;;;;;;;;;23.91;32.71;95577.78;4964509;28;9337;-63
2022/03/19 05:49:55;;;;;;;;;;;;;;;23.91;33.06;95581.28;4967019;28;7034;-63
2022/03/19 05:52:21;;;;;;;;;;;;;;;23.93;33.55;95575.31;4972575;28;9404;-63
2022/03/19 05:54:47;;;;;;;;;;;;;;;23.92;32.92;95577.28;4967813;28;9032;-63
2022/03/19 05:57:14;;;;;;;;;;;;;;;23.93;32.84;95586.31;4984606;28;9138;-63
2022/03/19 05:59:42;;;;;;;;;;;;;;;23.93;32.80;95578.06;4976304;28;8122;-63
2022/03/19 06:02:08;;;;;;;;;;;;;;;23.86;33.04;95570.19;4975523;28;9455;-63
2022/03/19 06:04:46;;;;;;;;;;;;;;;23.91;32.71;95575.78;4978995;28;7012;-63
2022/03/19 06:07:14;;;;;;;;;;;;;;;23.89;32.25;95580.22;4975515;28;9252;-63
2022/03/19 06:09:40;;;;;;;;;;;;;;;23.88;32.13;95584.22;4974837;28;7370;-63
2022/03/19 06:12:08;;;;;;;;;;;;;;;23.86;32.48;95575.66;4969536;28;7066;-63
2022/03/19 06:14:36;;;;;;;;;;;;;;;23.86;33.03;95576.44;4969553;28;9083;-63
2022/03/19 06:17:07;;;;;;;;;;;;;;;23.90;32.58;95573.53;4986306;28;9096;-63
2022/03/19 06:19:36;;;;;;;;;;;;;;;23.90;32.45;95573.53;4972174;28;7626;-63
2022/03/19 06:22:04;;;;;;;;;;;;;;;23.89;32.62;95570.00;4994610;28;7016;-63
2022/03/19 06:24:30;;;;;;;;;;;;;;;23.87;32.57;95566.22;4984499;28;9231;-63
2022/03/19 06:27:04;;;;;;;;;;;;;;;23.88;32.69;95571.22;4973579;28;8731;-63
2022/03/19 06:29:30;;;;;;;;;;;;;;;23.89;32.61;95563.75;4969160;28;9208;-63
2022/03/19 06:31:58;;;;;;;;;;;;;;;23.88;32.41;95562.97;4971942;28;7343;-63
2022/03/19 06:34:24;;;;;;;;;;;;;;;23.86;32.82;95572.91;4989041;28;8613;-63
2022/03/19 06:39:57;;;;;;;;;;;;;;;23.86;33.04;95568.19;4922432;29;7200;-63
2022/03/19 06:42:25;;;;;;;;;;;;;;;23.87;33.00;95566.22;4909189;29;9470;-63
2022/03/19 06:44:53;;;;;;;;;;;;;;;23.89;33.18;95574.75;4906653;28;9131;-63
2022/03/19 06:47:19;;;;;;;;;;;;;;;23.88;33.21;95565.72;4901217;29;7422;-64
2022/03/19 06:49:50;;;;;;;;;;;;;;;23.87;32.27;95564.22;4902369;29;9300;-63
2022/03/19 06:52:18;;;;;;;;;;;;;;;23.81;32.78;95568.09;4911738;29;7067;-63
2022/03/19 06:54:47;;;;;;;;;;;;;;;23.80;32.88;95561.06;4903674;29;7348;-63
2022/03/19 06:57:13;;;;;;;;;;;;;;;23.77;32.32;95559.28;4894406;29;7332;-63
2022/03/19 06:59:42;;;;;;;;;;;;;;;23.76;32.56;95560.50;4896447;29;8724;-64
2022/03/19 07:02:08;;;;;;;;;;;;;;;23.79;33.11;95562.31;4901164;29;9435;-63
2022/03/19 07:04:34;;;;;;;;;;;;;;;23.80;32.86;95556.34;4894578;29;9480;-63
2022/03/19 07:07:01;;;;;;;;;;;;;;;23.83;32.49;95563.66;4899427;29;7358;-64
2022/03/19 07:09:30;;;;;;;;;;;;;;;23.85;32.58;95563.94;4912522;29;8692;-63
2022/03/19 07:11:56;;;;;;;;;;;;;;;23.86;33.01;95565.44;4899693;29;7421;-63
2022/03/19 07:14:35;;;;;;;;;;;;;;;23.85;33.18;95565.94;4897876;28;7485;-64
2022/03/19 07:17:01;;;;;;;;;;;;;;;23.84;32.69;95562.41;4957248;28;7126;-63
2022/03/19 07:19:27;;;;;;;;;;;;;;;23.84;32.80;95556.91;4971849;28;9145;-63
2022/03/19 07:21:58;;;;;;;;;;;;;;;23.85;33.32;95563.94;4960103;28;7036;-64
2022/03/19 07:24:36;;;;;;;;;;;;;;;23.85;32.61;95558.44;4968576;28;9418;-63
2022/03/19 07:27:06;;;;;;;;;;;;;;;23.83;32.88;95549.16;4989874;28;9470;-63
2022/03/19 07:29:34;;;;;;;;;;;;;;;23.85;32.26;95552.19;4973904;28;7055;-63
2022/03/19 07:32:12;;;;;;;;;;;;;;;23.88;33.02;95557.50;4973602;28;6860;-63
2022/03/19 07:34:40;;;;;;;;;;;;;;;23.91;32.99;95561.28;4975828;28;9519;-63
2022/03/19 07:37:23;;;;;;;;;;;;;;;23.87;32.93;95553.25;4989396;28;9470;-63
2022/03/19 07:39:49;;;;;;;;;;;;;;;23.89;32.76;95561.78;4971850;28;7687;-62
2022/03/19 07:42:15;;;;;;;;;;;;;;;23.89;33.02;95556.28;4975334;28;7259;-62
2022/03/19 07:44:44;;;;;;;;;;;;;;;23.88;33.66;95551.25;4968388;28;6978;-63
2022/03/19 07:47:19;;;;;;;;;;;;;;;23.91;32.91;95547.56;4971635;28;9045;-62
2022/03/19 07:50:17;;;;;;;;;;;;;;;23.93;32.98;95558.81;4973459;28;9286;-62
2022/03/19 07:52:56;;;;;;;;;;;;;;;23.90;33.31;95546.03;4933719;29;9294;-62
2022/03/19 07:55:22;;;;;;;;;;;;;;;23.90;33.56;95546.78;4947651;28;9111;-62
2022/03/19 07:57:48;;;;;;;;;;;;;;;23.92;33.49;95552.56;4937836;28;9320;-62
2022/03/19 08:00:14;;;;;;;;;;;;;;;23.95;33.42;95553.63;4931841;28;8779;-62
2022/03/19 08:02:42;;;;;;;;;;;;;;;23.96;33.66;95546.91;4936159;28;9005;-62
2022/03/19 08:05:41;;;;;;;;;;;;;;;23.95;33.45;95550.88;4951171;28;7307;-62
2022/03/19 08:08:12;;;;;;;;;;;;;;;23.94;33.58;95552.13;4915841;29;7300;-62
2022/03/19 08:10:39;;;;;;;;;;;;;;;23.93;33.43;95547.84;4933036;29;7162;-62
2022/03/19 08:13:09;;;;;;;;;;;;;;;23.96;33.90;95549.66;4929422;29;9482;-61
2022/03/19 08:15:38;;;;;;;;;;;;;;;23.92;33.92;95535.34;4916220;29;7190;-63
2022/03/19 08:18:04;;;;;;;;;;;;;;;23.92;34.13;95547.06;4931736;28;9459;-63
2022/03/19 08:20:31;;;;;;;;;;;;;;;23.94;34.17;95547.38;4932939;29;9324;-63
2022/03/19 08:23:09;;;;;;;;;;;;;;;23.92;34.13;95552.56;4917301;28;7170;-63
2022/03/19 08:25:37;;;;;;;;;;;;;;;23.89;34.23;95550.78;4916265;29;7688;-63
2022/03/19 08:28:24;;;;;;;;;;;;;;;23.91;34.37;95551.06;4937687;28;9019;-63
2022/03/19 08:30:58;;;;;;;;;;;;;;;23.92;33.82;95546.34;4949481;28;9100;-63
2022/03/19 08:33:56;;;;;;;;;;;;;;;23.92;34.33;95544.31;4951031;28;7485;-63
2022/03/19 08:36:30;;;;;;;;;;;;;;;23.93;33.86;95536.84;4946708;28;9360;-63
2022/03/19 08:41:42;;;;;;;;;;;;;;;23.92;34.27;95543.59;4948681;28;9132;-63
2022/03/19 08:44:13;;;;;;;;;;;;;;;23.92;33.94;95538.09;4953996;28;7321;-63
2022/03/19 08:46:39;;;;;;;;;;;;;;;23.94;34.06;95543.88;4979601;28;8092;-63
2022/03/19 08:49:06;;;;;;;;;;;;;;;23.90;34.13;95555.03;4971826;28;8289;-63
2022/03/19 08:51:40;;;;;;;;;;;;;;;23.91;34.22;95539.31;4980719;28;9479;-63
2022/03/19 08:54:18;;;;;;;;;;;;;;;23.93;34.29;95539.59;4977403;28;9423;-63
2022/03/19 08:56:48;;;;;;;;;;;;;;;23.95;34.20;95542.63;4965222;28;9119;-63
2022/03/19 08:59:20;;;;;;;;;;;;;;;23.94;35.05;95541.13;4966855;28;9126;-62
2022/03/19 09:01:48;;;;;;;;;;;;;;;23.95;34.35;95542.63;4978619;28;9252;-63
2022/03/19 09:04:47;;;;;;;;;;;;;;;23.95;34.80;95531.63;4984924;28;9060;-63
2022/03/19 09:07:14;;;;;;;;;;;;;;;23.95;34.89;95535.16;4929836;28;9651;-63
2022/03/19 09:09:53;;;;;;;;;;;;;;;23.96;34.46;95531.19;4929085;28;8778;-63
2022/03/19 09:12:25;;;;;;;;;;;;;;;23.94;34.50;95535.63;4931984;28;9165;-63
2022/03/19 09:14:52;;;;;;;;;;;;;;;23.98;34.59;95545.19;4940604;28;7435;-62
2022/03/19 09:17:22;;;;;;;;;;;;;;;23.96;34.63;95531.19;4941973;28;9029;-63
2022/03/19 09:19:48;;;;;;;;;;;;;;;23.94;34.59;95541.13;4930760;29;9098;-63
2022/03/19 09:22:14;;;;;;;;;;;;;;;23.92;34.78;95536.06;4929572;29;7028;-63
2022/03/19 09:24:42;;;;;;;;;;;;;;;23.91;34.69;95531.81;4946043;28;7558;-63
2022/03/19 09:27:09;;;;;;;;;;;;;;;23.91;35.20;95536.56;4947084;28;9089;-63
2022/03/19 09:30:06;;;;;;;;;;;;;;;23.90;34.68;95532.31;4950782;28;9112;-63
2022/03/19 09:32:44;;;;;;;;;;;;;;;23.88;35.19;95524.50;4872916;29;8293;-63
2022/03/19 09:35:29;;;;;;;;;;;;;;;23.89;34.81;95526.06;4860934;29;9038;-63
2022/03/19 09:37:56;;;;;;;;;;;;;;;23.90;35.00;95526.81;4859449;29;7417;-63
2022/03/19 09:40:23;;;;;;;;;;;;;;;23.86;35.20;95518.75;4859943;29;7972;-63
2022/03/19 09:42:59;;;;;;;;;;;;;;;23.87;35.34;95519.50;4879556;29;7294;-62
2022/03/19 09:45:27;;;;;;;;;;;;;;;23.86;35.26;95523.47;4894076;29;7138;-63
2022/03/19 09:47:55;;;;;;;;;;;;;;;23.88;35.14;95512.78;4873760;29;7332;-63
2022/03/19 09:50:23;;;;;;;;;;;;;;;23.90;35.25;95511.06;4889150;29;9051;-63
2022/03/19 09:52:53;;;;;;;;;;;;;;;23.93;35.71;95507.38;4875961;29;7293;-63
2022/03/19 09:55:27;;;;;;;;;;;;;;;23.96;35.61;95514.69;4894431;29;9804;-63
2022/03/19 09:57:57;;;;;;;;;;;;;;;23.98;35.27;95508.72;4892539;29;9356;-63
2022/03/19 10:00:28;;;;;;;;;;;;;;;23.98;35.30;95516.97;4875532;29;8125;-62
2022/03/19 10:03:08;;;;;;;;;;;;;;;23.96;35.42;95514.69;4889951;29;9111;-62
2022/03/19 10:08:35;;;;;;;;;;;;;;;24.01;35.69;95513.28;4917474;28;9402;-62
2022/03/19 10:11:06;;;;;;;;;;;;;;;24.00;35.31;95509.00;4986694;28;9078;-62
2022/03/19 10:14:06;;;;;;;;;;;;;;;24.01;35.14;95510.53;4971844;28;8882;-62
2022/03/19 10:16:35;;;;;;;;;;;;;;;24.00;34.63;95509.00;4927310;29;7822;-62
2022/03/19 10:19:04;;;;;;;;;;;;;;;23.97;35.00;95502.44;4922982;29;8700;-62
2022/03/19 10:21:37;;;;;;;;;;;;;;;24.03;35.19;95508.06;4911497;29;7253;-61
2022/03/19 10:24:07;;;;;;;;;;;;;;;24.04;34.83;95506.81;4923488;29;7620;-62
2022/03/19 10:26:37;;;;;;;;;;;;;;;24.05;34.94;95508.38;4923634;29;9735;-62
2022/03/19 10:29:05;;;;;;;;;;;;;;;24.03;35.11;95501.81;4924996;29;8277;-62
2022/03/19 10:31:37;;;;;;;;;;;;;;;24.05;35.47;95505.63;4910255;29;7254;-62
2022/03/19 10:34:05;;;;;;;;;;;;;;;24.09;35.05;95499.94;4911021;29;7085;-62
2022/03/19 10:36:42;;;;;;;;;;;;;;;24.11;35.65;95491.97;4930601;29;7239;-62
2022/03/19 10:39:13;;;;;;;;;;;;;;;24.12;35.14;95488.72;4914982;29;9188;-62
2022/03/19 10:41:40;;;;;;;;;;;;;;;24.11;35.06;95495.47;4931311;29;9197;-62
2022/03/19 10:44:16;;;;;;;;;;;;;;;24.13;35.44;95490.25;4928270;29;6949;-63
2022/03/19 10:46:50;;;;;;;;;;;;;;;24.13;35.19;95484.00;4914997;29;9102;-62
2022/03/19 10:49:24;;;;;;;;;;;;;;;24.14;35.42;95483.50;4909643;29;9073;-63
2022/03/19 10:51:53;;;;;;;;;;;;;;;24.14;35.50;95480.78;4914320;28;7876;-63
2022/03/19 10:54:19;;;;;;;;;;;;;;;24.16;35.62;95477.56;4967838;28;9002;-62
2022/03/19 10:56:49;;;;;;;;;;;;;;;24.15;35.63;95465.03;4968978;28;7489;-62
2022/03/19 10:59:16;;;;;;;;;;;;;;;24.17;35.62;95462.56;4969741;28;6986;-62
2022/03/19 11:01:42;;;;;;;;;;;;;;;24.17;35.22;95457.84;4969142;28;9106;-62
2022/03/19 11:04:26;;;;;;;;;;;;;;;24.19;35.29;95454.59;4985332;28;7050;-62
2022/03/19 11:07:02;;;;;;;;;;;;;;;24.19;35.84;95449.88;4978655;28;9079;-62
2022/03/19 11:09:38;;;;;;;;;;;;;;;24.18;35.54;95440.13;4986744;28;7074;-62
2022/03/19 11:12:12;;;;;;;;;;;;;;;24.18;35.30;95431.88;4990099;28;7382;-62
2022/03/19 11:14:40;;;;;;;;;;;;;;;24.19;35.86;95438.88;4968729;28;7271;-62
2022/03/19 11:17:23;;;;;;;;;;;;;;;24.17;35.14;95446.84;4971984;28;7244;-63
2022/03/19 11:20:06;;;;;;;;;;;;;;;24.19;35.75;95438.88;4989667;28;7899;-62
2022/03/19 11:22:59;;;;;;;;;;;;;;;24.21;35.52;95435.66;4978415;28;7342;-62
2022/03/19 11:25:50;;;;;;;;;;;;;;;24.16;35.60;95426.09;4916318;29;8313;-62
2022/03/19 11:28:19;;;;;;;;;;;;;;;24.18;35.58;95420.88;4929155;29;9437;-62
2022/03/19 11:31:00;;;;;;;;;;;;;;;;;;4920539;29;7296;-62
2022/03/19 11:33:30;;;;;;;;;;;;;;;24.24;35.70;95424.47;4926098;28;8757;-62
2022/03/19 11:35:59;;;;;;;;;;;;;;;24.25;36.38;95417.00;4926095;28;6883;-62
2022/03/19 11:38:26;;;;;;;;;;;;;;;24.26;36.35;95419.25;4919177;29;7680;-62
2022/03/19 11:40:57;;;;;;;;;;;;;;;24.28;36.27;95414.03;4917516;29;9028;-62
2022/03/19 11:43:32;;;;;;;;;;;;;;;24.29;36.52;95406.53;4920526;29;9093;-62
2022/03/19 11:46:03;;;;;;;;;;;;;;;24.27;36.62;95400.78;4922728;29;9295;-62
2022/03/19 11:48:35;;;;;;;;;;;;;;;24.25;36.29;95389.50;4927440;29;8852;-62
2022/03/19 11:51:20;;;;;;;;;;;;;;;24.26;36.17;95383.50;4922860;29;7054;-62
2022/03/19 11:54:02;;;;;;;;;;;;;;;24.28;36.32;95374.78;4907244;29;8694;-62
2022/03/19 11:56:40;;;;;;;;;;;;;;;24.29;36.42;95377.06;4926183;29;7273;-62
2022/03/19 11:59:32;;;;;;;;;;;;;;;24.32;36.29;95376.09;4924445;29;7363;-62
2022/03/19 12:02:01;;;;;;;;;;;;;;;24.35;36.19;95374.38;4939309;28;9185;-62
2022/03/19 12:04:51;;;;;;;;;;;;;;;24.33;36.78;95366.63;4978642;28;7296;-62
2022/03/19 12:08:03;;;;;;;;;;;;;;;24.32;36.40;95356.09;4963117;28;7209;-62
2022/03/19 12:11:16;;;;;;;;;;;;;;;24.33;36.28;95358.38;4945867;28;9027;-62
2022/03/19 12:13:47;;;;;;;;;;;;;;;24.37;36.54;95352.66;4940861;28;9333;-62
2022/03/19 12:16:44;;;;;;;;;;;;;;;24.38;36.63;95357.66;4929116;28;7949;-63
2022/03/19 12:19:10;;;;;;;;;;;;;;;24.39;36.29;95356.44;4929102;28;9125;-62
2022/03/19 12:21:41;;;;;;;;;;;;;;;24.39;36.46;95353.69;4931066;28;8728;-62
2022/03/19 12:24:17;;;;;;;;;;;;;;;24.37;36.75;95341.66;4929323;28;6990;-62
2022/03/19 12:26:49;;;;;;;;;;;;;;;24.37;36.55;95336.94;4944614;28;9191;-63
2022/03/19 12:29:18;;;;;;;;;;;;;;;24.37;36.81;95334.19;4928991;28;6869;-62
2022/03/19 12:31:48;;;;;;;;;;;;;;;24.38;37.11;95324.69;4946900;28;7044;-62
2022/03/19 12:34:22;;;;;;;;;;;;;;;24.39;36.75;95311.69;4926914;28;8747;-63
2022/03/19 12:36:51;;;;;;;;;;;;;;;24.40;36.79;95318.72;4926979;28;7241;-63
2022/03/19 12:39:20;;;;;;;;;;;;;;;24.40;37.11;95311.19;4925137;28;9156;-62
2022/03/19 12:41:46;;;;;;;;;;;;;;;24.40;36.78;95304.97;4945329;28;7758;-62
2022/03/19 12:44:31;;;;;;;;;;;;;;;24.43;36.44;95298.50;4945160;28;9197;-62
2022/03/19 12:47:01;;;;;;;;;;;;;;;24.45;36.83;95296.78;4945659;28;8459;-62
2022/03/19 12:49:28;;;;;;;;;;;;;;;24.45;36.78;95290.50;4931958;28;9876;-62
2022/03/19 12:51:56;;;;;;;;;;;;;;;24.48;36.88;95295.81;4964059;28;9419;-62
2022/03/19 12:54:26;;;;;;;;;;;;;;;24.49;37.09;95286.31;4980755;28;7454;-62
2022/03/19 12:56:56;;;;;;;;;;;;;;;24.52;36.91;95279.09;4961533;28;7549;-62
2022/03/19 12:59:27;;;;;;;;;;;;;;;24.53;37.10;95273.13;4963659;28;8745;-62
2022/03/19 13:01:55;;;;;;;;;;;;;;;24.55;37.00;95276.16;4979411;28;9306;-62
2022/03/19 13:04:27;;;;;;;;;;;;;;;24.58;36.85;95260.66;4964648;28;7370;-62
2022/03/19 13:06:54;;;;;;;;;;;;;;;24.58;36.98;95258.69;4964892;28;7152;-62
2022/03/19 13:09:39;;;;;;;;;;;;;;;24.61;37.46;95267.97;4961407;28;8912;-62
2022/03/19 13:12:14;;;;;;;;;;;;;;;24.62;36.84;95264.72;4983092;28;10281;-62
2022/03/19 13:14:56;;;;;;;;;;;;;;;24.64;37.03;95256.75;4966969;28;9566;-62
2022/03/19 13:17:30;;;;;;;;;;;;;;;24.64;37.08;95256.00;4980965;28;7711;-62
2022/03/19 13:20:10;;;;;;;;;;;;;;;24.69;37.17;95249.78;4965856;28;7123;-62
2022/03/19 13:22:38;;;;;;;;;;;;;;;24.67;37.31;95250.28;4984528;28;7345;-62
2022/03/19 13:25:08;;;;;;;;;;;;;;;24.67;37.16;95255.78;4969910;28;7389;-62
2022/03/19 13:28:03;;;;;;;;;;;;;;;24.68;37.06;95249.03;4986482;28;9455;-62
2022/03/19 13:30:38;;;;;;;;;;;;;;;24.69;36.64;95247.81;4951131;28;7188;-62
2022/03/19 13:33:14;;;;;;;;;;;;;;;24.70;37.22;95243.81;4949436;28;9132;-62
2022/03/19 13:35:48;;;;;;;;;;;;;;;24.73;37.11;95240.09;4970514;28;8340;-62
2022/03/19 13:38:20;;;;;;;;;;;;;;;24.77;36.64;95242.66;4964882;28;8731;-62
2022/03/19 13:40:50;;;;;;;;;;;;;;;24.75;36.82;95228.63;4952301;28;9054;-62